Time;durP1;ratioP1;P1;durP2;ratioP2;P2;SDS_P1;SDS_P2;PMS_P1;PMS_P2;Temp;Humidity;BMP_temperature;BMP_pressure;BME280_temperature;BME280_humidity;BME280_pressure;Samples;Min_cycle;Max_cycle;Signal;HPM_P1;HPM_P2
2023/05/19 00:01:44;;;;;;;;;;;;;;;9.88;100.00;96490.22;5022635;28;19925;-84
2023/05/19 00:04:13;;;;;;;;;;;;;;;9.85;100.00;96488.84;5022874;28;19925;-84
2023/05/19 00:06:41;;;;;;;;;;;;;;;9.77;100.00;96481.03;5022208;28;19975;-83
2023/05/19 00:09:09;;;;;;;;;;;;;;;9.71;100.00;96492.69;5024433;28;20032;-84
2023/05/19 00:11:38;;;;;;;;;;;;;;;9.70;100.00;96484.81;5023490;28;20028;-84
2023/05/19 00:14:06;;;;;;;;;;;;;;;9.66;100.00;96487.13;5029125;28;20172;-84
2023/05/19 00:16:33;;;;;;;;;;;;;;;9.65;100.00;96490.88;5025798;28;20032;-83
2023/05/19 00:19:00;;;;;;;;;;;;;;;9.63;100.00;96482.16;5017960;28;19925;-85
2023/05/19 00:21:28;;;;;;;;;;;;;;;9.63;100.00;96479.47;5038208;28;19929;-84
2023/05/19 00:23:55;;;;;;;;;;;;;;;9.68;100.00;96476.13;5024387;28;19940;-84
2023/05/19 00:26:23;;;;;;;;;;;;;;;9.70;100.00;96469.44;5025458;28;19940;-83
2023/05/19 00:28:58;;;;;;;;;;;;;;;9.76;100.00;96462.38;5024642;28;19933;-85
2023/05/19 00:31:25;;;;;;;;;;;;;;;9.79;100.00;96468.13;5041908;28;19955;-84
2023/05/19 00:33:52;;;;;;;;;;;;;;;9.81;100.00;96463.34;5022980;28;20183;-84
2023/05/19 00:36:19;;;;;;;;;;;;;;;9.80;100.00;96463.56;5022023;28;19925;-84
2023/05/19 00:38:46;;;;;;;;;;;;;;;9.79;100.00;96457.34;5039018;28;19925;-85
2023/05/19 00:41:12;;;;;;;;;;;;;;;9.79;100.00;96461.91;5039364;28;19937;-84
2023/05/19 00:43:40;;;;;;;;;;;;;;;9.78;100.00;96453.00;5018000;28;19926;-85
2023/05/19 00:46:09;;;;;;;;;;;;;;;9.77;100.00;96455.94;5020685;28;19926;-84
2023/05/19 00:48:36;;;;;;;;;;;;;;;9.75;100.00;96455.31;5035250;28;19925;-85
2023/05/19 00:51:05;;;;;;;;;;;;;;;9.79;100.00;96453.81;5032407;28;19972;-83
2023/05/19 00:53:32;;;;;;;;;;;;;;;9.81;100.00;96449.84;5040389;28;19925;-84
2023/05/19 00:56:00;;;;;;;;;;;;;;;9.81;100.00;96449.03;5042834;28;20006;-84
2023/05/19 00:58:29;;;;;;;;;;;;;;;9.82;100.00;96451.50;5021174;28;19932;-85
2023/05/19 01:01:01;;;;;;;;;;;;;;;9.87;100.00;96448.97;5030836;28;20007;-85
2023/05/19 01:03:31;;;;;;;;;;;;;;;9.89;100.00;96451.44;5021162;28;19925;-83
2023/05/19 01:06:03;;;;;;;;;;;;;;;9.91;100.00;96448.53;5021939;28;19932;-83
2023/05/19 01:08:31;;;;;;;;;;;;;;;9.88;100.00;96442.50;5019269;28;19957;-84
2023/05/19 01:10:58;;;;;;;;;;;;;;;9.91;100.00;96443.13;5039914;28;19932;-84
2023/05/19 01:13:25;;;;;;;;;;;;;;;9.90;100.00;96444.16;5025334;28;19925;-84
2023/05/19 01:15:58;;;;;;;;;;;;;;;9.90;100.00;96444.16;5023222;28;19940;-84
2023/05/19 01:18:30;;;;;;;;;;;;;;;9.88;100.00;96447.91;5037234;28;19937;-84
2023/05/19 01:21:05;;;;;;;;;;;;;;;9.85;100.00;96442.97;5021845;28;19933;-85
2023/05/19 01:23:36;;;;;;;;;;;;;;;9.89;100.00;96437.94;5040920;28;20015;-84
2023/05/19 01:26:22;;;;;;;;;;;;;;;9.94;100.00;96438.13;5041693;28;19925;-84
2023/05/19 01:29:07;;;;;;;;;;;;;;;9.93;100.00;96443.72;5039556;28;19936;-84
2023/05/19 01:31:36;;;;;;;;;;;;;;;9.98;100.00;96441.19;5025798;28;19937;-84
2023/05/19 01:34:09;;;;;;;;;;;;;;;9.97;100.00;96437.66;5022285;28;20555;-85
2023/05/19 01:36:37;;;;;;;;;;;;;;;10.00;100.00;96441.78;5021408;28;19933;-84
2023/05/19 01:39:06;;;;;;;;;;;;;;;10.00;100.00;96452.56;5022514;28;19936;-84
2023/05/19 01:41:34;;;;;;;;;;;;;;;10.00;100.00;96452.56;5019251;28;19932;-85
2023/05/19 01:44:01;;;;;;;;;;;;;;;9.96;100.00;96448.66;5028705;28;19925;-84
2023/05/19 01:46:27;;;;;;;;;;;;;;;9.94;100.00;96446.22;5025180;28;19932;-84
2023/05/19 01:48:56;;;;;;;;;;;;;;;9.94;100.00;96448.09;5019859;28;20200;-85
2023/05/19 01:51:22;;;;;;;;;;;;;;;9.95;100.00;96438.94;5023051;28;19991;-85
2023/05/19 01:53:49;;;;;;;;;;;;;;;9.97;100.00;96443.03;5035850;28;19933;-84
2023/05/19 01:56:20;;;;;;;;;;;;;;;10.00;100.00;96449.88;5020473;28;19932;-84
2023/05/19 01:58:55;;;;;;;;;;;;;;;10.00;100.00;96441.78;5036199;28;19936;-84
2023/05/19 02:01:30;;;;;;;;;;;;;;;10.00;100.00;96439.09;5019063;28;19933;-85
2023/05/19 02:04:13;;;;;;;;;;;;;;;9.99;100.00;96445.53;5022846;28;19933;-84
2023/05/19 02:06:45;;;;;;;;;;;;;;;9.99;100.00;96438.25;5022284;28;19933;-85
2023/05/19 02:09:15;;;;;;;;;;;;;;;9.91;100.00;96441.25;5038747;28;19930;-85
2023/05/19 02:11:47;;;;;;;;;;;;;;;9.86;100.00;96441.94;5041386;28;19929;-84
2023/05/19 02:14:17;;;;;;;;;;;;;;;9.87;100.00;96437.34;5046945;28;19933;-85
2023/05/19 02:16:47;;;;;;;;;;;;;;;9.84;100.00;96435.94;5029807;28;19979;-84
2023/05/19 02:19:23;;;;;;;;;;;;;;;9.78;100.00;96439.50;5028737;28;19956;-84
2023/05/19 02:21:50;;;;;;;;;;;;;;;9.70;100.00;96437.09;5027826;28;20010;-85
2023/05/19 02:24:17;;;;;;;;;;;;;;;9.69;100.00;96434.66;5048898;28;19948;-84
2023/05/19 02:26:44;;;;;;;;;;;;;;;9.66;100.00;96441.31;5033656;28;19997;-85
2023/05/19 02:29:11;;;;;;;;;;;;;;;9.61;100.00;96435.72;5026785;28;20544;-85
2023/05/19 02:31:38;;;;;;;;;;;;;;;9.56;100.00;96435.59;5031174;28;19940;-84
2023/05/19 02:34:04;;;;;;;;;;;;;;;9.54;100.00;96437.66;5048184;28;19944;-85
2023/05/19 02:36:35;;;;;;;;;;;;;;;9.52;100.00;96439.78;5031784;28;19925;-84
2023/05/19 02:39:03;;;;;;;;;;;;;;;9.46;100.00;96438.78;5044325;28;20036;-84
2023/05/19 02:41:30;;;;;;;;;;;;;;;9.43;100.00;96431.16;5033088;28;19944;-84
2023/05/19 02:43:57;;;;;;;;;;;;;;;9.39;100.00;96423.72;5023646;28;19953;-83
2023/05/19 02:46:24;;;;;;;;;;;;;;;9.40;100.00;96425.38;5019506;28;19932;-85
2023/05/19 02:48:51;;;;;;;;;;;;;;;9.42;100.00;96418.72;5043001;28;19936;-84
2023/05/19 02:51:17;;;;;;;;;;;;;;;9.45;100.00;96412.88;5021568;28;19932;-84
2023/05/19 02:53:46;;;;;;;;;;;;;;;9.43;100.00;96417.69;5029245;28;19925;-84
2023/05/19 02:56:13;;;;;;;;;;;;;;;9.40;100.00;96419.97;5030184;28;19933;-84
2023/05/19 02:58:41;;;;;;;;;;;;;;;9.40;100.00;96414.59;5030633;28;20016;-84
2023/05/19 03:01:08;;;;;;;;;;;;;;;9.38;100.00;96422.88;5029047;28;19932;-84
2023/05/19 03:03:35;;;;;;;;;;;;;;;9.40;100.00;96411.91;5032363;28;19986;-84
2023/05/19 03:06:02;;;;;;;;;;;;;;;9.44;100.00;96415.81;5028951;28;19933;-86
2023/05/19 03:08:29;;;;;;;;;;;;;;;9.47;100.00;96409.97;5027749;28;19926;-84
2023/05/19 03:10:58;;;;;;;;;;;;;;;9.46;100.00;96403.75;5024892;28;19979;-85
2023/05/19 03:13:25;;;;;;;;;;;;;;;9.44;100.00;96405.03;5044341;28;19924;-84
2023/05/19 03:15:51;;;;;;;;;;;;;;;9.43;100.00;96398.00;5042497;28;19925;-84
2023/05/19 03:18:18;;;;;;;;;;;;;;;9.39;100.00;96399.47;5040539;28;19995;-85
2023/05/19 03:20:45;;;;;;;;;;;;;;;9.38;100.00;96405.91;5044207;28;20065;-85
2023/05/19 03:23:11;;;;;;;;;;;;;;;9.31;100.00;96405.13;5026834;28;20030;-84
2023/05/19 03:25:38;;;;;;;;;;;;;;;9.31;100.00;96399.75;5026339;28;19956;-85
2023/05/19 03:28:06;;;;;;;;;;;;;;;9.32;100.00;96406.78;5042703;28;20014;-85
2023/05/19 03:30:34;;;;;;;;;;;;;;;9.30;100.00;96404.31;5020356;28;19957;-84
2023/05/19 03:33:11;;;;;;;;;;;;;;;9.29;100.00;96405.34;5014400;28;19933;-85
2023/05/19 03:35:39;;;;;;;;;;;;;;;9.30;100.00;96404.31;5040345;28;19925;-85
2023/05/19 03:38:06;;;;;;;;;;;;;;;9.29;100.00;96407.22;5039299;28;19932;-85
2023/05/19 03:40:34;;;;;;;;;;;;;;;9.26;100.00;96408.50;5028507;28;19984;-85
2023/05/19 03:43:06;;;;;;;;;;;;;;;9.26;100.00;96386.94;5041802;28;20044;-83
2023/05/19 03:45:39;;;;;;;;;;;;;;;9.27;100.00;96414.72;5025995;28;20008;-85
2023/05/19 03:48:25;;;;;;;;;;;;;;;9.27;100.00;96406.63;5035777;28;19929;-84
2023/05/19 03:51:17;;;;;;;;;;;;;;;9.29;100.00;96404.53;5044161;28;19929;-84
2023/05/19 03:53:47;;;;;;;;;;;;;;;9.31;100.00;96410.53;5046835;28;19952;-85
2023/05/19 03:56:16;;;;;;;;;;;;;;;9.32;100.00;96421.09;5026498;28;19931;-85
2023/05/19 03:58:45;;;;;;;;;;;;;;;9.34;100.00;96415.47;5024136;28;19929;-84
2023/05/19 04:01:14;;;;;;;;;;;;;;;9.34;100.00;96416.31;5019584;28;20023;-83
2023/05/19 04:03:41;;;;;;;;;;;;;;;9.33;100.00;96413.81;5022171;28;19925;-83
2023/05/19 04:06:08;;;;;;;;;;;;;;;9.32;100.00;96418.38;5022864;28;19936;-85
2023/05/19 04:08:35;;;;;;;;;;;;;;;9.35;100.00;96425.22;5026276;28;19929;-84
2023/05/19 04:11:02;;;;;;;;;;;;;;;9.37;100.00;96420.41;5023086;28;19948;-83
2023/05/19 04:13:30;;;;;;;;;;;;;;;9.41;100.00;96421.63;5021594;28;19928;-84
2023/05/19 04:15:57;;;;;;;;;;;;;;;9.46;100.00;96413.69;5024517;28;19964;-84
2023/05/19 04:18:25;;;;;;;;;;;;;;;9.51;100.00;96427.34;5029281;28;19983;-84
2023/05/19 04:20:52;;;;;;;;;;;;;;;9.54;100.00;96432.28;5042021;28;19932;-85
2023/05/19 04:23:19;;;;;;;;;;;;;;;9.56;100.00;96430.19;5039706;28;19944;-84
2023/05/19 04:25:47;;;;;;;;;;;;;;;9.61;100.00;96432.25;5025118;28;19951;-84
2023/05/19 04:28:14;;;;;;;;;;;;;;;9.62;100.00;96429.28;5025071;28;19929;-86
2023/05/19 04:30:41;;;;;;;;;;;;;;;9.64;100.00;96435.28;5026259;28;19968;-83
2023/05/19 04:33:10;;;;;;;;;;;;;;;9.64;100.00;96427.22;5037250;28;19925;-85
2023/05/19 04:35:38;;;;;;;;;;;;;;;9.65;100.00;96434.25;5039454;28;19929;-84
2023/05/19 04:38:08;;;;;;;;;;;;;;;9.64;100.00;96434.47;5020757;28;19925;-85
2023/05/19 04:40:35;;;;;;;;;;;;;;;9.55;100.00;96430.41;5023358;28;19925;-85
2023/05/19 04:43:02;;;;;;;;;;;;;;;9.54;100.00;96431.44;5021928;28;19929;-84
2023/05/19 04:45:32;;;;;;;;;;;;;;;9.57;100.00;96437.22;5022208;28;19925;-85
2023/05/19 04:48:00;;;;;;;;;;;;;;;9.59;100.00;96442.41;5034421;28;19925;-84
2023/05/19 04:50:28;;;;;;;;;;;;;;;9.62;100.00;96440.06;5023544;28;19940;-85
2023/05/19 04:52:58;;;;;;;;;;;;;;;9.56;100.00;96440.97;5018475;28;19926;-85
2023/05/19 04:55:25;;;;;;;;;;;;;;;9.54;100.00;96448.44;5040178;28;19925;-85
2023/05/19 04:57:53;;;;;;;;;;;;;;;9.45;100.00;96441.69;5022966;28;19931;-84
2023/05/19 05:00:21;;;;;;;;;;;;;;;9.46;100.00;96446.03;5025421;28;19935;-85
2023/05/19 05:02:58;;;;;;;;;;;;;;;9.48;100.00;96441.25;5027650;28;20000;-85
2023/05/19 05:05:28;;;;;;;;;;;;;;;9.50;100.00;96447.25;5040021;28;19931;-84
2023/05/19 05:07:57;;;;;;;;;;;;;;;9.51;100.00;96448.91;5023364;28;20036;-85
2023/05/19 05:10:25;;;;;;;;;;;;;;;9.53;100.00;96446.78;5041940;28;19929;-85
2023/05/19 05:12:53;;;;;;;;;;;;;;;9.57;100.00;96442.63;5035582;28;19940;-85
2023/05/19 05:15:23;;;;;;;;;;;;;;;9.60;100.00;96442.19;5027096;28;20012;-84
2023/05/19 05:17:51;;;;;;;;;;;;;;;9.61;100.00;96438.44;5044366;28;19975;-84
2023/05/19 05:20:19;;;;;;;;;;;;;;;9.59;100.00;96443.25;5024027;28;19941;-84
2023/05/19 05:22:47;;;;;;;;;;;;;;;9.60;100.00;96442.19;5021984;28;19960;-83
2023/05/19 05:25:17;;;;;;;;;;;;;;;9.62;100.00;96434.69;5021850;28;19929;-83
2023/05/19 05:27:45;;;;;;;;;;;;;;;9.66;100.00;96435.09;5042633;28;19933;-83
2023/05/19 05:30:14;;;;;;;;;;;;;;;9.71;100.00;96440.63;5026741;28;20024;-85
2023/05/19 05:32:41;;;;;;;;;;;;;;;9.73;100.00;96433.97;5022392;28;19925;-84
2023/05/19 05:35:16;;;;;;;;;;;;;;;9.75;100.00;96439.16;5038308;28;19929;-85
2023/05/19 05:37:43;;;;;;;;;;;;;;;9.70;100.00;96430.88;5019199;28;19968;-84
2023/05/19 05:40:10;;;;;;;;;;;;;;;9.66;100.00;96424.28;5021757;28;19925;-84
2023/05/19 05:42:38;;;;;;;;;;;;;;;9.68;100.00;96433.00;5022830;28;19925;-85
2023/05/19 05:45:06;;;;;;;;;;;;;;;9.69;100.00;96432.78;5024525;28;19925;-85
2023/05/19 05:47:36;;;;;;;;;;;;;;;9.71;100.00;96427.97;5024236;28;19929;-84
2023/05/19 05:50:04;;;;;;;;;;;;;;;9.78;100.00;96426.03;5022767;28;19925;-85
2023/05/19 05:52:32;;;;;;;;;;;;;;;9.88;100.00;96423.63;5036700;28;19933;-84
2023/05/19 05:55:00;;;;;;;;;;;;;;;10.01;100.00;96427.25;5021695;28;19925;-85
2023/05/19 05:57:30;;;;;;;;;;;;;;;10.08;100.00;96433.38;5023457;28;19932;-85
2023/05/19 05:59:58;;;;;;;;;;;;;;;10.16;100.00;96425.00;5020863;28;19936;-85
2023/05/19 06:02:26;;;;;;;;;;;;;;;10.21;100.00;96433.25;5023384;28;20221;-84
2023/05/19 06:04:54;;;;;;;;;;;;;;;10.24;100.00;96425.53;5019149;28;19933;-84
2023/05/19 06:07:21;;;;;;;;;;;;;;;10.25;100.00;96431.78;5019855;28;19929;-84
2023/05/19 06:09:47;;;;;;;;;;;;;;;10.31;100.00;96424.63;5024598;28;19925;-86
2023/05/19 06:12:15;;;;;;;;;;;;;;;10.37;100.00;96415.66;5028467;28;19932;-86
2023/05/19 06:14:46;;;;;;;;;;;;;;;10.44;100.00;96428.00;5028476;28;19925;-84
2023/05/19 06:17:37;;;;;;;;;;;;;;;10.50;100.00;96420.88;5022211;28;20219;-85
2023/05/19 06:20:05;;;;;;;;;;;;;;;10.56;100.00;96419.94;5026118;28;19932;-85
2023/05/19 06:22:33;;;;;;;;;;;;;;;10.63;100.00;96416.09;5024269;28;19929;-84
2023/05/19 06:25:02;;;;;;;;;;;;;;;10.68;100.00;96422.69;5043010;28;19925;-85
2023/05/19 06:27:29;;;;;;;;;;;;;;;10.77;100.00;96424.03;5026008;28;19953;-85
2023/05/19 06:29:56;;;;;;;;;;;;;;;10.76;100.00;96419.69;5024447;28;19929;-85
2023/05/19 06:32:24;;;;;;;;;;;;;;;10.82;100.00;96421.44;5024544;28;19929;-85
2023/05/19 06:34:53;;;;;;;;;;;;;;;10.83;100.00;96429.31;5034198;28;19965;-84
2023/05/19 06:37:21;;;;;;;;;;;;;;;10.86;100.00;96419.94;5027894;28;19925;-85
2023/05/19 06:39:51;;;;;;;;;;;;;;;10.87;100.00;96417.03;5040580;28;19932;-85
2023/05/19 06:42:21;;;;;;;;;;;;;;;10.91;100.00;96411.97;5047625;28;20039;-86
2023/05/19 06:44:55;;;;;;;;;;;;;;;10.97;100.00;96421.88;5022800;28;19936;-84
2023/05/19 06:47:23;;;;;;;;;;;;;;;10.99;100.00;96423.28;5043598;28;19925;-84
2023/05/19 06:49:54;;;;;;;;;;;;;;;11.05;100.00;96418.84;5013469;28;19965;-85
2023/05/19 06:52:23;;;;;;;;;;;;;;;11.16;100.00;96415.31;5019912;28;19933;-85
2023/05/19 06:54:50;;;;;;;;;;;;;;;11.24;100.00;96416.84;5025693;28;19984;-85
2023/05/19 06:57:17;;;;;;;;;;;;;;;11.30;100.00;96413.25;5023136;28;19933;-85
2023/05/19 06:59:45;;;;;;;;;;;;;;;11.37;100.00;96417.47;5025277;28;19948;-84
2023/05/19 07:02:12;;;;;;;;;;;;;;;11.43;100.00;96415.72;5030033;28;19968;-84
2023/05/19 07:04:39;;;;;;;;;;;;;;;11.47;100.00;96416.09;5030758;28;19926;-85
2023/05/19 07:07:08;;;;;;;;;;;;;;;11.45;100.00;96415.47;5041177;28;20076;-85
2023/05/19 07:09:36;;;;;;;;;;;;;;;11.49;100.00;96420.19;5036722;28;19961;-85
2023/05/19 07:12:03;;;;;;;;;;;;;;;11.58;100.00;96420.66;5030703;28;20043;-85
2023/05/19 07:14:31;;;;;;;;;;;;;;;11.67;100.00;96416.53;5044641;28;19925;-85
2023/05/19 07:16:58;;;;;;;;;;;;;;;11.76;100.00;96420.56;5037109;28;20175;-85
2023/05/19 07:19:25;;;;;;;;;;;;;;;11.81;100.00;96420.72;5031942;28;19925;-84
2023/05/19 07:21:55;;;;;;;;;;;;;;;11.82;100.00;96413.41;5044334;28;19925;-85
2023/05/19 07:24:26;;;;;;;;;;;;;;;11.88;100.00;96421.41;5033707;28;19925;-84
2023/05/19 07:26:53;;;;;;;;;;;;;;;11.92;100.00;96413.63;5038732;28;19967;-83
2023/05/19 07:29:19;;;;;;;;;;;;;;;11.98;100.00;96416.22;5021196;28;20026;-84
2023/05/19 07:31:46;;;;;;;;;;;;;;;12.05;100.00;96414.22;5027323;28;20041;-84
2023/05/19 07:34:14;;;;;;;;;;;;;;;12.19;100.00;96416.63;5027739;28;20011;-85
2023/05/19 07:36:41;;;;;;;;;;;;;;;12.19;100.00;96416.63;5030583;28;19925;-86
2023/05/19 07:39:07;;;;;;;;;;;;;;;12.27;100.00;96408.16;5027404;28;19925;-85
2023/05/19 07:41:36;;;;;;;;;;;;;;;12.33;100.00;96416.16;5050913;28;19926;-85
2023/05/19 07:44:06;;;;;;;;;;;;;;;12.30;100.00;96410.38;5024297;28;19936;-85
2023/05/19 07:46:33;;;;;;;;;;;;;;;12.34;100.00;96415.06;5035917;28;20173;-84
2023/05/19 07:49:00;;;;;;;;;;;;;;;12.32;100.00;96413.69;5050182;28;19971;-85
2023/05/19 07:51:27;;;;;;;;;;;;;;;12.39;100.00;96414.38;5032863;28;19933;-85
2023/05/19 07:53:53;;;;;;;;;;;;;;;12.47;100.00;96413.97;5031059;28;19951;-84
2023/05/19 07:56:20;;;;;;;;;;;;;;;12.59;100.00;96409.34;5036903;28;19947;-85
2023/05/19 07:58:48;;;;;;;;;;;;;;;12.56;100.00;96412.53;5032926;28;19933;-86
2023/05/19 08:01:15;;;;;;;;;;;;;;;12.60;100.00;96412.88;5027752;28;19925;-85
2023/05/19 08:03:42;;;;;;;;;;;;;;;12.65;100.00;96405.69;5038149;28;19928;-85
2023/05/19 08:06:09;;;;;;;;;;;;;;;12.84;100.00;96396.25;5027460;28;19936;-84
2023/05/19 08:08:36;;;;;;;;;;;;;;;12.91;100.00;96417.00;5044187;28;19931;-85
2023/05/19 08:11:03;;;;;;;;;;;;;;;12.92;100.00;96402.38;5043544;28;19967;-85
2023/05/19 08:13:30;;;;;;;;;;;;;;;12.94;100.00;96411.91;5024329;28;19945;-84
2023/05/19 08:15:59;;;;;;;;;;;;;;;12.89;100.00;96409.94;5045677;28;19925;-84
2023/05/19 08:18:26;;;;;;;;;;;;;;;12.82;100.00;96403.00;5028355;28;19932;-85
2023/05/19 08:20:53;;;;;;;;;;;;;;;12.81;100.00;96398.66;5025937;28;19994;-85
2023/05/19 08:23:20;;;;;;;;;;;;;;;12.79;100.00;96404.31;5022652;28;19926;-84
2023/05/19 08:25:47;;;;;;;;;;;;;;;12.84;100.00;96401.69;5039382;28;20004;-85
2023/05/19 08:28:14;;;;;;;;;;;;;;;12.95;100.00;96402.69;5027635;28;19925;-86
2023/05/19 08:30:41;;;;;;;;;;;;;;;13.05;100.00;96404.78;5029091;28;19932;-85
2023/05/19 08:33:09;;;;;;;;;;;;;;;13.05;100.00;96404.78;5024052;28;19933;-86
2023/05/19 08:35:36;;;;;;;;;;;;;;;13.07;100.00;96408.91;5028751;28;20004;-85
2023/05/19 08:38:03;;;;;;;;;;;;;;;13.04;100.00;96400.41;5025741;28;19925;-84
2023/05/19 08:40:31;;;;;;;;;;;;;;;13.11;100.00;96399.19;5042198;28;19929;-85
2023/05/19 08:42:58;;;;;;;;;;;;;;;13.11;100.00;96403.78;5026693;28;20015;-84
2023/05/19 08:45:26;;;;;;;;;;;;;;;13.17;100.00;96400.16;5024680;28;19925;-86
2023/05/19 08:47:52;;;;;;;;;;;;;;;13.35;100.00;96393.66;5041708;28;19952;-84
2023/05/19 08:50:24;;;;;;;;;;;;;;;13.42;100.00;96399.75;5027015;28;19925;-84
2023/05/19 08:52:52;;;;;;;;;;;;;;;13.43;100.00;96396.78;5032958;28;19932;-85
2023/05/19 08:55:24;;;;;;;;;;;;;;;13.48;100.00;96401.47;5028896;28;19932;-84
2023/05/19 08:57:51;;;;;;;;;;;;;;;13.42;100.00;96395.16;5024932;28;19925;-85
2023/05/19 09:00:19;;;;;;;;;;;;;;;13.44;100.00;96392.97;5041462;28;19932;-84
2023/05/19 09:02:48;;;;;;;;;;;;;;;13.35;100.00;96396.38;5044733;28;19952;-84
2023/05/19 09:05:16;;;;;;;;;;;;;;;13.36;100.00;96390.69;5026733;28;19932;-85
2023/05/19 09:07:44;;;;;;;;;;;;;;;13.38;100.00;96391.28;5026626;28;19975;-84
2023/05/19 09:10:13;;;;;;;;;;;;;;;13.43;100.00;96394.09;5024591;28;20032;-84
2023/05/19 09:12:41;;;;;;;;;;;;;;;13.43;100.00;96393.25;5027995;28;19924;-85
2023/05/19 09:15:09;;;;;;;;;;;;;;;13.36;100.00;96387.97;5024558;28;19936;-85
2023/05/19 09:17:36;;;;;;;;;;;;;;;13.45;100.00;96378.34;5027600;28;19925;-85
2023/05/19 09:20:06;;;;;;;;;;;;;;;13.56;100.00;96379.34;5027884;28;19925;-85
2023/05/19 09:22:35;;;;;;;;;;;;;;;13.56;100.00;96377.47;5046346;28;19928;-85
2023/05/19 09:25:04;;;;;;;;;;;;;;;13.61;100.00;96385.66;5024695;28;19926;-86
2023/05/19 09:27:32;;;;;;;;;;;;;;;13.75;100.00;96383.44;5027664;28;19975;-85
2023/05/19 09:30:07;;;;;;;;;;;;;;;13.78;100.00;96382.13;5021112;28;19925;-85
2023/05/19 09:32:35;;;;;;;;;;;;;;;13.83;100.00;96374.88;5028177;28;20011;-83
2023/05/19 09:35:03;;;;;;;;;;;;;;;13.98;100.00;96377.78;5027966;28;19932;-85
2023/05/19 09:37:31;;;;;;;;;;;;;;;13.89;100.00;96375.75;5046445;28;20023;-85
2023/05/19 09:39:58;;;;;;;;;;;;;;;13.94;100.00;96378.56;5023175;28;19925;-84
2023/05/19 09:42:28;;;;;;;;;;;;;;;13.93;100.00;96375.00;5026601;28;20020;-85
2023/05/19 09:45:02;;;;;;;;;;;;;;;14.00;100.00;96372.94;5041340;28;19936;-84
2023/05/19 09:47:32;;;;;;;;;;;;;;;14.12;100.00;96370.09;5015563;28;19948;-84
2023/05/19 09:49:59;;;;;;;;;;;;;;;14.14;100.00;96370.66;5027310;28;19947;-84
2023/05/19 09:52:26;;;;;;;;;;;;;;;14.17;100.00;96367.44;5029012;28;19926;-85
2023/05/19 09:54:54;;;;;;;;;;;;;;;14.13;100.00;96358.16;5021905;28;20015;-84
2023/05/19 09:57:27;;;;;;;;;;;;;;;14.09;100.00;96361.63;5032224;28;19925;-87
2023/05/19 09:59:56;;;;;;;;;;;;;;;14.06;100.00;96354.81;5021046;28;19983;-85
2023/05/19 10:02:24;;;;;;;;;;;;;;;14.10;100.00;96360.56;5036829;28;19925;-84
2023/05/19 10:04:52;;;;;;;;;;;;;;;14.15;100.00;96350.59;5032651;28;19940;-85
2023/05/19 10:07:19;;;;;;;;;;;;;;;14.20;100.00;96358.81;5026592;28;19925;-85
2023/05/19 10:09:48;;;;;;;;;;;;;;;14.18;100.00;96358.25;5027794;28;19960;-85
2023/05/19 10:12:16;;;;;;;;;;;;;;;14.23;100.00;96357.47;5026988;28;19947;-85
2023/05/19 10:14:46;;;;;;;;;;;;;;;14.30;100.00;96356.19;5031827;28;19929;-85
2023/05/19 10:17:13;;;;;;;;;;;;;;;14.35;100.00;96347.31;5044017;28;19932;-87
2023/05/19 10:19:41;;;;;;;;;;;;;;;14.29;100.00;96354.53;5029567;28;19928;-85
2023/05/19 10:22:07;;;;;;;;;;;;;;;14.28;100.00;96352.13;5025689;28;19987;-85
2023/05/19 10:24:34;;;;;;;;;;;;;;;14.37;100.00;96353.31;5037107;28;19925;-85
2023/05/19 10:27:03;;;;;;;;;;;;;;;14.57;100.00;96350.00;5026466;28;19956;-86
2023/05/19 10:29:31;;;;;;;;;;;;;;;14.59;100.00;96351.41;5032175;28;19925;-85
2023/05/19 10:32:05;;;;;;;;;;;;;;;14.54;100.00;96353.25;5043939;28;19964;-85
2023/05/19 10:34:49;;;;;;;;;;;;;;;14.44;100.00;96355.84;5040987;28;19972;-84
2023/05/19 10:37:19;;;;;;;;;;;;;;;14.41;100.00;96356.34;5023056;28;19999;-85
2023/05/19 10:39:46;;;;;;;;;;;;;;;14.36;100.00;96354.38;5025842;28;20016;-85
2023/05/19 10:42:15;;;;;;;;;;;;;;;14.24;100.00;96359.94;5032359;28;19948;-86
2023/05/19 10:44:46;;;;;;;;;;;;;;;14.06;100.00;96360.25;5042282;28;19925;-85
2023/05/19 10:47:22;;;;;;;;;;;;;;;14.08;100.00;96360.00;5040810;28;19925;-85
2023/05/19 10:49:49;;;;;;;;;;;;;;;14.15;100.00;96357.91;5053127;28;20288;-85
2023/05/19 10:52:24;;;;;;;;;;;;;;;14.16;100.00;96359.56;5039824;28;19925;-85
2023/05/19 10:54:53;;;;;;;;;;;;;;;14.25;100.00;96358.88;5029871;28;20010;-85
2023/05/19 10:57:20;;;;;;;;;;;;;;;14.42;100.00;96358.81;5028646;28;19925;-86
2023/05/19 10:59:48;;;;;;;;;;;;;;;14.41;100.00;96364.50;5030251;28;19925;-86
2023/05/19 11:02:30;;;;;;;;;;;;;;;14.38;100.00;96357.63;5029044;28;19931;-86
2023/05/19 11:05:07;;;;;;;;;;;;;;;14.32;100.00;96359.50;5045200;28;19937;-85
2023/05/19 11:07:34;;;;;;;;;;;;;;;14.25;100.00;96369.72;5046498;28;19939;-86
2023/05/19 11:10:05;;;;;;;;;;;;;;;14.26;100.00;96360.50;5031003;28;19925;-85
2023/05/19 11:12:39;;;;;;;;;;;;;;;14.39;100.00;96371.00;5030114;28;19960;-85
2023/05/19 11:15:07;;;;;;;;;;;;;;;14.40;100.00;96366.41;5046409;28;19975;-85
2023/05/19 11:17:35;;;;;;;;;;;;;;;14.37;100.00;96367.69;5032788;28;20096;-86
2023/05/19 11:20:09;;;;;;;;;;;;;;;14.38;100.00;96372.06;5027290;28;19991;-86
2023/05/19 11:22:37;;;;;;;;;;;;;;;14.39;100.00;96373.72;5033020;28;19929;-84
2023/05/19 11:25:06;;;;;;;;;;;;;;;14.43;100.00;96365.06;5029662;28;19971;-86
2023/05/19 11:27:36;;;;;;;;;;;;;;;14.53;100.00;96368.75;5032185;28;19925;-85
2023/05/19 11:30:13;;;;;;;;;;;;;;;14.45;100.00;96371.09;5029245;28;20003;-86
2023/05/19 11:32:42;;;;;;;;;;;;;;;14.39;100.00;96362.84;5025785;28;19948;-84
2023/05/19 11:35:10;;;;;;;;;;;;;;;14.34;100.00;96368.22;5039787;28;19983;-85
2023/05/19 11:37:39;;;;;;;;;;;;;;;14.36;100.00;96376.94;5027901;28;19936;-86
2023/05/19 11:40:07;;;;;;;;;;;;;;;14.36;100.00;96366.06;5028184;28;19938;-85
2023/05/19 11:42:35;;;;;;;;;;;;;;;14.54;100.00;96369.56;5020709;28;19925;-84
2023/05/19 11:45:02;;;;;;;;;;;;;;;14.44;100.00;96370.25;5045027;28;19925;-86
2023/05/19 11:47:31;;;;;;;;;;;;;;;14.55;100.00;96365.75;5031730;28;20143;-85
2023/05/19 11:49:58;;;;;;;;;;;;;;;14.59;100.00;96361.44;5025533;28;20191;-85
2023/05/19 11:52:27;;;;;;;;;;;;;;;14.62;100.00;96369.09;5025464;28;19929;-85
2023/05/19 11:54:55;;;;;;;;;;;;;;;14.60;100.00;96366.63;5016313;28;19972;-85
2023/05/19 11:57:22;;;;;;;;;;;;;;;14.70;100.00;96365.94;5029210;28;19932;-85
2023/05/19 11:59:51;;;;;;;;;;;;;;;14.79;100.00;96364.41;5025670;28;19929;-84
2023/05/19 12:02:18;;;;;;;;;;;;;;;14.70;100.00;96360.50;5029289;28;19929;-85
2023/05/19 12:04:45;;;;;;;;;;;;;;;14.74;100.00;96351.56;5023895;28;19925;-85
2023/05/19 12:07:14;;;;;;;;;;;;;;;14.80;100.00;96359.78;5027411;28;19984;-85
2023/05/19 12:09:44;;;;;;;;;;;;;;;14.92;100.00;96358.53;5026716;28;19936;-86
2023/05/19 12:12:14;;;;;;;;;;;;;;;14.87;100.00;96361.22;5024415;28;19925;-83
2023/05/19 12:14:41;;;;;;;;;;;;;;;14.80;100.00;96355.13;5023662;28;20020;-83
2023/05/19 12:17:12;;;;;;;;;;;;;;;14.68;100.00;96357.22;5036831;28;19978;-83
2023/05/19 12:19:40;;;;;;;;;;;;;;;14.63;100.00;96359.88;5031418;28;19925;-83
2023/05/19 12:22:07;;;;;;;;;;;;;;;14.49;100.00;96358.63;5036486;28;19925;-87
2023/05/19 12:24:34;;;;;;;;;;;;;;;14.37;100.00;96362.25;5039845;28;19926;-85
2023/05/19 12:27:07;;;;;;;;;;;;;;;14.39;100.00;96360.13;5025983;28;19932;-85
2023/05/19 12:29:35;;;;;;;;;;;;;;;14.39;100.00;96354.72;5044115;28;19933;-87
2023/05/19 12:32:03;;;;;;;;;;;;;;;14.36;100.00;96365.25;5030423;28;19979;-87
2023/05/19 12:34:30;;;;;;;;;;;;;;;14.22;100.00;96372.94;5029406;28;19952;-86
2023/05/19 12:36:57;;;;;;;;;;;;;;;14.24;100.00;96376.22;5026382;28;20023;-85
2023/05/19 12:39:24;;;;;;;;;;;;;;;14.22;100.00;96372.94;5023039;28;20218;-86
2023/05/19 12:41:51;;;;;;;;;;;;;;;14.15;100.00;96372.31;5034867;28;19933;-87
2023/05/19 12:44:19;;;;;;;;;;;;;;;14.13;100.00;96366.31;5027225;28;19933;-86
2023/05/19 12:46:47;;;;;;;;;;;;;;;14.07;100.00;96364.59;5028981;28;19925;-86
2023/05/19 12:49:15;;;;;;;;;;;;;;;13.98;100.00;96375.06;5036953;28;19975;-85